Terminal Aerodrome Forecast
Issued by NWS

Home | Current Version | Previous Version | Text Only | Print | Product List | Glossary On
Versions: 1 2 3 4 5 6 7 8 9 10 11 12 13 14 15 16 17 18 19 20 21 22 23 24 25 26 27 28 29 30 31
000
FTUS46 KSGX 271442 AAA
TAFSAN
TAF AMD
KSAN 271442Z 2715/2818 VRB05KT P6SM OVC025
     FM271600 29005KT P6SM BKN025
     FM272000 29010KT P6SM BKN025
      TEMPO 2721/2801 SCT025
     FM280300 VRB04KT P6SM OVC012=

USA.gov is the U.S. government's official web portal to all federal, state and local government web resources and services.